Terminal Aerodrome Forecast
Issued by NWS

Home | Current Version | Previous Version | Text Only | Print | Product List | Glossary On
Versions: 1 2 3 4 5 6 7 8 9 10 11 12 13 14 15 16 17 18 19 20 21 22
059
FTUS44 KJAN 031120
TAFGTR
TAF
KGTR 031120Z 0312/0412 35006KT P6SM BKN010 OVC060
     FM031500 35005KT P6SM BKN025 OVC060
     FM032000 36006KT P6SM BKN050
     FM040900 31006KT P6SM SCT250=

USA.gov is the U.S. government's official web portal to all federal, state and local government web resources and services.